Time;durP1;ratioP1;P1;durP2;ratioP2;P2;SDS_P1;SDS_P2;PMS_P1;PMS_P2;Temp;Humidity;BMP_temperature;BMP_pressure;BME280_temperature;BME280_humidity;BME280_pressure;Samples;Min_cycle;Max_cycle;Signal;HPM_P1;HPM_P2
2021/06/06 00:00:14;;;;;;;;;;;;;;;20.09;50.66;99790.47;5101827;28;19916;-49
2021/06/06 00:02:39;;;;;;;;;;;;;;;20.15;50.70;99791.28;5099570;28;20031;-51
2021/06/06 00:05:05;;;;;;;;;;;;;;;20.29;50.29;99794.28;5100093;28;19935;-48
2021/06/06 00:07:30;;;;;;;;;;;;;;;20.18;50.77;99793.47;5101571;28;19926;-49
2021/06/06 00:09:56;;;;;;;;;;;;;;;20.19;51.44;99792.38;5102122;28;19916;-51
2021/06/06 00:12:21;;;;;;;;;;;;;;;20.20;50.95;99793.19;5110555;28;19924;-49
2021/06/06 00:14:46;;;;;;;;;;;;;;;20.01;51.05;99784.75;5110462;28;20073;-50
2021/06/06 00:17:11;;;;;;;;;;;;;;;20.06;50.83;99782.88;5095717;28;20323;-51
2021/06/06 00:19:37;;;;;;;;;;;;;;;20.01;51.21;99776.66;5090281;28;19922;-48
2021/06/06 00:22:02;;;;;;;;;;;;;;;20.11;50.79;99771.28;5096166;28;20473;-48
2021/06/06 00:24:28;;;;;;;;;;;;;;;20.14;50.86;99778.03;5110439;28;20374;-49
2021/06/06 00:26:54;;;;;;;;;;;;;;;20.12;50.89;99775.59;5110520;28;19923;-48
2021/06/06 00:29:19;;;;;;;;;;;;;;;20.05;50.22;99764.25;5110569;28;19927;-50
2021/06/06 00:31:45;;;;;;;;;;;;;;;20.05;50.42;99770.47;5110254;28;19966;-50
2021/06/06 00:34:10;;;;;;;;;;;;;;;19.97;49.97;99764.75;5108747;28;20338;-48
2021/06/06 00:36:35;;;;;;;;;;;;;;;19.80;50.58;99765.78;5110016;28;19923;-50
2021/06/06 00:39:01;;;;;;;;;;;;;;;19.60;50.87;99762.97;5109874;28;19912;-49
2021/06/06 00:41:27;;;;;;;;;;;;;;;19.04;52.36;99756.16;5109918;28;19911;-49
2021/06/06 00:43:52;;;;;;;;;;;;;;;19.27;52.07;99767.66;5109749;28;19915;-48
2021/06/06 00:46:18;;;;;;;;;;;;;;;19.42;51.51;99764.19;5109389;28;20052;-50
2021/06/06 00:48:44;;;;;;;;;;;;;;;19.61;50.76;99767.28;5094305;28;19912;-51
2021/06/06 00:51:11;;;;;;;;;;;;;;;19.75;50.67;99767.66;5089676;28;20415;-48
2021/06/06 00:53:37;;;;;;;;;;;;;;;19.83;49.81;99757.16;5089629;28;20407;-50
2021/06/06 00:56:03;;;;;;;;;;;;;;;20.03;49.19;99766.38;5088290;28;19970;-48
2021/06/06 00:58:29;;;;;;;;;;;;;;;20.12;48.86;99762.09;5089693;28;19912;-48
2021/06/06 01:00:54;;;;;;;;;;;;;;;20.14;48.90;99757.22;5089770;28;20022;-49
2021/06/06 01:03:22;;;;;;;;;;;;;;;20.17;49.22;99762.13;5071103;28;19951;-51
2021/06/06 01:05:50;;;;;;;;;;;;;;;20.14;49.25;99762.63;5089285;28;19912;-50
2021/06/06 01:08:16;;;;;;;;;;;;;;;20.12;49.23;99754.00;5089470;28;19916;-47
2021/06/06 01:10:42;;;;;;;;;;;;;;;20.20;49.30;99753.50;5089241;28;19939;-50
2021/06/06 01:13:13;;;;;;;;;;;;;;;20.10;49.49;99751.59;5087985;28;19916;-49
2021/06/06 01:15:38;;;;;;;;;;;;;;;19.99;49.66;99749.94;5089428;28;20340;-47
2021/06/06 01:18:19;;;;;;;;;;;;;;;19.92;48.94;99747.47;5089219;28;20583;-48
2021/06/06 01:20:47;;;;;;;;;;;;;;;20.22;48.15;99747.78;5089765;28;19989;-49
2021/06/06 01:23:33;;;;;;;;;;;;;;;20.01;48.86;99746.94;5104285;28;20062;-50
2021/06/06 01:26:04;;;;;;;;;;;;;;;20.02;48.20;99743.97;5108459;28;20395;-48
2021/06/06 01:28:34;;;;;;;;;;;;;;;19.88;48.93;99740.97;5109800;28;19912;-48
2021/06/06 01:31:00;;;;;;;;;;;;;;;20.04;48.46;99738.31;5108243;28;19969;-49
2021/06/06 01:33:30;;;;;;;;;;;;;;;20.01;48.38;99730.72;5108141;28;19912;-48
2021/06/06 01:35:57;;;;;;;;;;;;;;;20.01;48.51;99728.88;5108219;28;20010;-51
2021/06/06 01:38:26;;;;;;;;;;;;;;;20.11;48.36;99736.97;5109709;28;19967;-49
2021/06/06 01:40:52;;;;;;;;;;;;;;;19.91;48.75;99739.63;5109477;28;20464;-49
2021/06/06 01:43:19;;;;;;;;;;;;;;;19.97;48.80;99735.03;5108126;28;20090;-47
2021/06/06 01:45:46;;;;;;;;;;;;;;;20.01;48.87;99731.56;5109544;28;19947;-51
2021/06/06 01:48:12;;;;;;;;;;;;;;;20.16;48.60;99738.06;5097558;28;19912;-50
2021/06/06 01:50:41;;;;;;;;;;;;;;;20.21;48.48;99738.88;5089185;28;19944;-50
2021/06/06 01:53:07;;;;;;;;;;;;;;;20.27;48.42;99740.50;5087982;28;19973;-51
2021/06/06 01:55:32;;;;;;;;;;;;;;;20.36;48.13;99740.81;5087899;28;19916;-48
2021/06/06 01:57:59;;;;;;;;;;;;;;;20.36;47.75;99738.09;5091464;28;19912;-49
2021/06/06 02:00:26;;;;;;;;;;;;;;;20.39;47.72;99745.69;5092480;28;20028;-49
2021/06/06 02:02:51;;;;;;;;;;;;;;;20.16;48.19;99743.47;5092297;28;19912;-50
2021/06/06 02:05:17;;;;;;;;;;;;;;;20.21;48.07;99741.59;5090951;28;20472;-48
2021/06/06 02:07:42;;;;;;;;;;;;;;;20.18;47.84;99739.44;5092002;28;19920;-47
2021/06/06 02:10:31;;;;;;;;;;;;;;;20.20;47.83;99739.97;5091012;28;19912;-48
2021/06/06 02:13:03;;;;;;;;;;;;;;;20.26;47.70;99732.69;5089088;28;19965;-49
2021/06/06 02:15:29;;;;;;;;;;;;;;;20.20;47.74;99736.44;5090961;28;19916;-47
2021/06/06 02:17:55;;;;;;;;;;;;;;;20.12;47.84;99726.97;5092224;28;20027;-47
2021/06/06 02:20:21;;;;;;;;;;;;;;;20.13;48.00;99727.81;5092603;28;20431;-49
2021/06/06 02:22:46;;;;;;;;;;;;;;;20.05;48.28;99732.66;5104602;28;19912;-49
2021/06/06 02:25:14;;;;;;;;;;;;;;;20.07;48.23;99725.09;5112826;28;19964;-50
2021/06/06 02:27:46;;;;;;;;;;;;;;;19.94;48.38;99731.00;5112627;28;19987;-47
2021/06/06 02:30:16;;;;;;;;;;;;;;;19.81;49.16;99724.19;5112737;28;19915;-51
2021/06/06 02:32:44;;;;;;;;;;;;;;;19.80;48.98;99729.84;5111110;28;19916;-50
2021/06/06 02:35:30;;;;;;;;;;;;;;;19.81;48.78;99726.91;5112209;28;19919;-48
2021/06/06 02:37:56;;;;;;;;;;;;;;;19.81;49.44;99726.91;5111902;28;19999;-50
2021/06/06 02:40:33;;;;;;;;;;;;;;;19.96;48.26;99726.13;5111098;28;20010;-49
2021/06/06 02:43:04;;;;;;;;;;;;;;;20.08;47.91;99721.28;5110842;28;19945;-49
2021/06/06 02:45:30;;;;;;;;;;;;;;;20.16;47.75;99727.25;5110916;28;20006;-50
2021/06/06 02:48:01;;;;;;;;;;;;;;;20.05;48.43;99727.25;5102600;28;19995;-51
2021/06/06 02:50:27;;;;;;;;;;;;;;;19.81;48.72;99721.50;5090634;28;19912;-48
2021/06/06 02:52:55;;;;;;;;;;;;;;;19.88;49.05;99723.97;5090598;28;19970;-48
2021/06/06 02:55:24;;;;;;;;;;;;;;;19.97;48.82;99727.78;5091854;28;20375;-51
2021/06/06 02:57:54;;;;;;;;;;;;;;;20.01;48.96;99719.94;5090438;28;20426;-48
2021/06/06 03:00:20;;;;;;;;;;;;;;;20.01;48.65;99736.13;5090403;28;19970;-48
2021/06/06 03:02:46;;;;;;;;;;;;;;;19.91;48.72;99726.13;5091197;28;20312;-49
2021/06/06 03:05:12;;;;;;;;;;;;;;;19.91;48.64;99729.66;5089978;28;19912;-50
2021/06/06 03:07:47;;;;;;;;;;;;;;;19.87;48.80;99720.44;5072116;28;19934;-48
2021/06/06 03:10:14;;;;;;;;;;;;;;;19.91;48.25;99721.56;5091319;28;19923;-49
2021/06/06 03:12:39;;;;;;;;;;;;;;;19.94;48.54;99716.69;5089700;28;19931;-51
2021/06/06 03:15:06;;;;;;;;;;;;;;;19.73;48.92;99722.03;5090615;28;19920;-49
2021/06/06 03:17:32;;;;;;;;;;;;;;;19.79;48.91;99722.84;5089344;28;19955;-49
2021/06/06 03:19:58;;;;;;;;;;;;;;;19.74;48.93;99715.53;5090622;28;19944;-50
2021/06/06 03:22:27;;;;;;;;;;;;;;;19.54;49.31;99713.53;5099223;28;19916;-52
2021/06/06 03:24:56;;;;;;;;;;;;;;;19.59;49.43;99713.56;5110732;28;19916;-51
2021/06/06 03:27:22;;;;;;;;;;;;;;;19.72;48.75;99712.28;5109526;28;19912;-52
2021/06/06 03:29:53;;;;;;;;;;;;;;;19.87;48.45;99720.44;5111053;28;19912;-50
2021/06/06 03:32:19;;;;;;;;;;;;;;;19.84;48.49;99718.28;5111153;28;20383;-51
2021/06/06 03:34:44;;;;;;;;;;;;;;;19.89;48.73;99712.06;5109691;28;19912;-49
2021/06/06 03:37:09;;;;;;;;;;;;;;;20.09;48.25;99717.53;5111142;28;19911;-49
2021/06/06 03:39:34;;;;;;;;;;;;;;;20.40;47.22;99714.88;5110997;28;20374;-51
2021/06/06 03:42:00;;;;;;;;;;;;;;;20.91;46.27;99722.19;5110946;28;19923;-48
2021/06/06 03:44:25;;;;;;;;;;;;;;;21.11;46.63;99710.50;5110893;28;19945;-50
2021/06/06 03:46:51;;;;;;;;;;;;;;;21.46;45.31;99714.25;5110965;28;19919;-50
2021/06/06 03:49:16;;;;;;;;;;;;;;;21.80;44.41;99714.38;5091031;28;19919;-48
2021/06/06 03:51:41;;;;;;;;;;;;;;;22.19;44.04;99713.59;5090532;28;20182;-49
2021/06/06 03:54:10;;;;;;;;;;;;;;;22.49;43.18;99719.94;5090459;28;19912;-48
2021/06/06 03:56:36;;;;;;;;;;;;;;;22.78;42.66;99727.28;5090143;28;20037;-47
2021/06/06 03:59:01;;;;;;;;;;;;;;;22.51;43.50;99720.47;5090222;28;20340;-47
2021/06/06 04:01:26;;;;;;;;;;;;;;;23.07;41.87;99712.94;5090141;28;19919;-50
2021/06/06 04:03:52;;;;;;;;;;;;;;;23.65;40.43;99715.53;5088526;28;19920;-49
2021/06/06 04:06:18;;;;;;;;;;;;;;;24.01;39.96;99720.53;5089972;28;20338;-46
2021/06/06 04:08:43;;;;;;;;;;;;;;;24.55;38.91;99721.09;5090058;28;19916;-48
2021/06/06 04:11:08;;;;;;;;;;;;;;;24.64;38.05;99719.31;5090299;28;19919;-48
2021/06/06 04:13:33;;;;;;;;;;;;;;;24.89;37.61;99726.22;5091083;28;19912;-48
2021/06/06 04:15:59;;;;;;;;;;;;;;;25.15;37.28;99723.03;5090604;28;19920;-50
2021/06/06 04:18:25;;;;;;;;;;;;;;;25.40;36.24;99712.78;5090890;28;19912;-48
2021/06/06 04:20:56;;;;;;;;;;;;;;;25.61;35.52;99718.63;5090853;28;19919;-51
2021/06/06 04:23:21;;;;;;;;;;;;;;;25.58;35.72;99717.31;5107717;28;19923;-52
2021/06/06 04:25:47;;;;;;;;;;;;;;;25.77;35.00;99711.75;5110621;28;19912;-48
2021/06/06 04:28:12;;;;;;;;;;;;;;;26.02;35.11;99712.34;5110866;28;20317;-49
2021/06/06 04:30:37;;;;;;;;;;;;;;;26.28;34.48;99709.81;5110710;28;19915;-50
2021/06/06 04:33:07;;;;;;;;;;;;;;;26.77;33.62;99718.19;5110575;28;19916;-47
2021/06/06 04:35:33;;;;;;;;;;;;;;;26.40;34.65;99720.97;5110413;28;19983;-50
2021/06/06 04:37:58;;;;;;;;;;;;;;;26.80;33.88;99728.50;5110495;28;19911;-48
2021/06/06 04:40:23;;;;;;;;;;;;;;;27.38;33.05;99718.50;5110629;28;19994;-50
2021/06/06 04:42:48;;;;;;;;;;;;;;;27.58;32.51;99715.19;5110504;28;19953;-49
2021/06/06 04:45:14;;;;;;;;;;;;;;;27.83;32.20;99713.63;5110730;28;19918;-50
2021/06/06 04:47:39;;;;;;;;;;;;;;;28.23;31.53;99718.19;5104359;28;20504;-48
2021/06/06 04:50:06;;;;;;;;;;;;;;;28.75;30.79;99717.34;5088838;28;19912;-50
2021/06/06 04:52:36;;;;;;;;;;;;;;;28.82;30.22;99710.22;5090094;28;19998;-49
2021/06/06 04:55:07;;;;;;;;;;;;;;;29.32;29.15;99716.19;5088471;28;19916;-50
2021/06/06 04:57:32;;;;;;;;;;;;;;;29.50;29.33;99714.19;5089879;28;19945;-51
2021/06/06 04:59:57;;;;;;;;;;;;;;;29.48;29.48;99709.03;5090080;28;19920;-49
2021/06/06 05:02:23;;;;;;;;;;;;;;;29.69;29.00;99709.06;5089922;28;19920;-48
2021/06/06 05:04:48;;;;;;;;;;;;;;;30.24;28.64;99706.44;5089710;28;19920;-49
2021/06/06 05:07:13;;;;;;;;;;;;;;;30.55;27.86;99700.50;5089779;28;19931;-48
2021/06/06 05:09:39;;;;;;;;;;;;;;;30.78;27.41;99714.63;5089803;28;19923;-48
2021/06/06 05:12:04;;;;;;;;;;;;;;;31.04;27.46;99714.38;5089639;28;19989;-49
2021/06/06 05:14:29;;;;;;;;;;;;;;;31.30;26.94;99710.47;5088514;28;19927;-48
2021/06/06 05:16:55;;;;;;;;;;;;;;;31.61;26.53;99718.19;5089780;28;20015;-51
2021/06/06 05:19:20;;;;;;;;;;;;;;;31.73;26.20;99709.91;5089994;28;19920;-50
2021/06/06 05:21:45;;;;;;;;;;;;;;;31.88;26.02;99707.59;5093465;28;20340;-49
2021/06/06 05:24:11;;;;;;;;;;;;;;;32.09;25.89;99719.25;5109669;28;19918;-49
2021/06/06 05:26:36;;;;;;;;;;;;;;;32.19;25.04;99712.44;5109399;28;19935;-47
2021/06/06 05:29:01;;;;;;;;;;;;;;;32.38;25.30;99727.53;5109739;28;19939;-50
2021/06/06 05:31:27;;;;;;;;;;;;;;;32.69;24.96;99724.88;5110214;28;20125;-51
2021/06/06 05:33:53;;;;;;;;;;;;;;;32.97;24.73;99737.00;5113261;28;19946;-50
2021/06/06 05:36:18;;;;;;;;;;;;;;;33.21;24.43;99730.53;5113496;28;19912;-50
2021/06/06 05:38:43;;;;;;;;;;;;;;;33.38;24.22;99732.13;5093509;28;19920;-48
2021/06/06 05:41:09;;;;;;;;;;;;;;;33.58;24.11;99727.47;5093000;28;20429;-51
2021/06/06 05:43:34;;;;;;;;;;;;;;;33.77;24.16;99729.50;5093115;28;19938;-48
2021/06/06 05:45:59;;;;;;;;;;;;;;;33.46;24.27;99723.66;5093283;28;20519;-50
2021/06/06 05:48:25;;;;;;;;;;;;;;;32.34;25.77;99733.72;5092882;28;20495;-50
2021/06/06 05:50:51;;;;;;;;;;;;;;;32.39;25.99;99721.66;5093070;28;19953;-48
2021/06/06 05:53:17;;;;;;;;;;;;;;;32.58;26.10;99720.22;5092677;28;19916;-50
2021/06/06 05:55:44;;;;;;;;;;;;;;;32.70;25.89;99720.16;5092854;28;19972;-48
2021/06/06 05:58:09;;;;;;;;;;;;;;;32.76;25.68;99712.44;5091418;28;20023;-48
2021/06/06 06:00:35;;;;;;;;;;;;;;;33.50;25.09;99721.78;5092572;28;20376;-51
2021/06/06 06:03:01;;;;;;;;;;;;;;;34.02;24.82;99714.25;5090898;28;19912;-50
2021/06/06 06:05:26;;;;;;;;;;;;;;;34.41;23.92;99713.50;5092396;28;19912;-49
2021/06/06 06:07:51;;;;;;;;;;;;;;;34.71;23.66;99702.63;5092377;28;20368;-51
2021/06/06 06:10:21;;;;;;;;;;;;;;;34.39;24.13;99708.34;5092588;28;19919;-48
2021/06/06 06:12:46;;;;;;;;;;;;;;;34.39;24.32;99702.03;5092567;28;19932;-51
2021/06/06 06:15:12;;;;;;;;;;;;;;;34.22;24.61;99709.56;5092296;28;20426;-50
2021/06/06 06:17:37;;;;;;;;;;;;;;;35.18;23.73;99709.75;5092142;28;19920;-50
2021/06/06 06:20:04;;;;;;;;;;;;;;;35.73;22.95;99712.19;5092343;28;19927;-48
2021/06/06 06:22:29;;;;;;;;;;;;;;;35.50;22.67;99722.50;5092232;28;20276;-48
2021/06/06 06:24:55;;;;;;;;;;;;;;;35.75;22.39;99711.81;5091941;28;19946;-50
2021/06/06 06:27:20;;;;;;;;;;;;;;;35.20;23.13;99714.91;5092036;28;19931;-50
2021/06/06 06:29:46;;;;;;;;;;;;;;;34.00;24.87;99711.06;5092092;28;20306;-49
2021/06/06 06:32:11;;;;;;;;;;;;;;;33.12;26.46;99708.66;5092287;28;19916;-51
2021/06/06 06:34:37;;;;;;;;;;;;;;;32.32;26.84;99715.97;5092018;28;20390;-51
2021/06/06 06:37:02;;;;;;;;;;;;;;;33.58;25.37;99706.19;5091873;28;20297;-51
2021/06/06 06:39:27;;;;;;;;;;;;;;;34.08;24.21;99709.25;5091840;28;19938;-51
2021/06/06 06:41:53;;;;;;;;;;;;;;;34.63;23.99;99701.69;5091242;28;19923;-51
2021/06/06 06:44:18;;;;;;;;;;;;;;;34.99;23.56;99702.31;5090592;28;19919;-48
2021/06/06 06:46:43;;;;;;;;;;;;;;;35.77;22.80;99710.25;5091459;28;19978;-49
2021/06/06 06:49:08;;;;;;;;;;;;;;;35.92;22.85;99708.47;5091331;28;20256;-50
2021/06/06 06:51:34;;;;;;;;;;;;;;;35.92;22.20;99710.44;5091314;28;20279;-50
2021/06/06 06:53:59;;;;;;;;;;;;;;;36.36;22.43;99702.28;5091638;28;20054;-51
2021/06/06 06:56:25;;;;;;;;;;;;;;;36.55;21.09;99709.59;5090989;28;19912;-50
2021/06/06 06:58:51;;;;;;;;;;;;;;;36.57;22.07;99714.78;5090950;28;20379;-49
2021/06/06 07:01:16;;;;;;;;;;;;;;;35.92;22.46;99711.25;5091119;28;19919;-48
2021/06/06 07:03:41;;;;;;;;;;;;;;;36.06;21.94;99710.63;5091100;28;19913;-48
2021/06/06 07:06:07;;;;;;;;;;;;;;;36.78;21.42;99703.13;5091139;28;20460;-49
2021/06/06 07:08:33;;;;;;;;;;;;;;;37.19;20.36;99703.13;5090685;28;19916;-51
2021/06/06 07:10:59;;;;;;;;;;;;;;;37.46;20.20;99700.91;5090051;28;19951;-47
2021/06/06 07:13:24;;;;;;;;;;;;;;;36.98;20.05;99703.72;5090104;28;19970;-47
2021/06/06 07:15:49;;;;;;;;;;;;;;;36.53;20.51;99692.56;5090690;28;19950;-51
2021/06/06 07:18:18;;;;;;;;;;;;;;;34.70;22.67;99687.22;5090752;28;20249;-50
2021/06/06 07:20:44;;;;;;;;;;;;;;;35.19;23.01;99691.22;5090637;28;19916;-50
2021/06/06 07:23:09;;;;;;;;;;;;;;;35.81;22.16;99690.94;5106373;28;19953;-49
2021/06/06 07:25:35;;;;;;;;;;;;;;;36.76;20.58;99694.41;5092784;28;20346;-50
2021/06/06 07:28:00;;;;;;;;;;;;;;;37.42;19.65;99691.78;5091050;28;19930;-50
2021/06/06 07:30:27;;;;;;;;;;;;;;;37.17;19.84;99694.38;5091772;28;19912;-48
2021/06/06 07:32:52;;;;;;;;;;;;;;;36.49;20.09;99688.19;5107485;28;19916;-49
2021/06/06 07:35:19;;;;;;;;;;;;;;;36.72;20.45;99688.81;5096728;28;20378;-50
2021/06/06 07:37:44;;;;;;;;;;;;;;;36.00;20.21;99687.22;5101402;28;19926;-49
2021/06/06 07:40:10;;;;;;;;;;;;;;;37.22;19.85;99699.56;5103738;28;19923;-48
2021/06/06 07:42:35;;;;;;;;;;;;;;;37.39;19.47;99683.41;5094157;28;19912;-50
2021/06/06 07:45:02;;;;;;;;;;;;;;;36.31;20.98;99686.03;5107030;28;19919;-50
2021/06/06 07:47:27;;;;;;;;;;;;;;;37.08;21.45;99686.34;5089961;28;19912;-52
2021/06/06 07:49:52;;;;;;;;;;;;;;;37.00;20.45;99690.25;5090686;28;19916;-49
2021/06/06 07:52:18;;;;;;;;;;;;;;;37.50;20.84;99692.59;5089681;28;19916;-51
2021/06/06 07:54:44;;;;;;;;;;;;;;;37.94;20.22;99688.88;5089226;28;19912;-50
2021/06/06 07:57:09;;;;;;;;;;;;;;;38.31;19.70;99690.63;5089476;28;19912;-50
2021/06/06 07:59:35;;;;;;;;;;;;;;;36.92;20.37;99677.53;5088059;28;19939;-49
2021/06/06 08:02:00;;;;;;;;;;;;;;;37.13;20.38;99671.34;5088342;28;20110;-51
2021/06/06 08:04:25;;;;;;;;;;;;;;;36.19;21.64;99664.94;5091357;28;20017;-49
2021/06/06 08:06:51;;;;;;;;;;;;;;;36.45;21.67;99679.03;5091984;28;20338;-50
2021/06/06 08:09:16;;;;;;;;;;;;;;;36.98;21.32;99668.47;5101673;28;19955;-51
2021/06/06 08:11:41;;;;;;;;;;;;;;;36.83;21.17;99663.19;5099643;28;19916;-50
2021/06/06 08:14:07;;;;;;;;;;;;;;;36.04;21.93;99663.13;5090898;28;19939;-49
2021/06/06 08:16:34;;;;;;;;;;;;;;;37.27;20.95;99656.81;5097215;28;19924;-50
2021/06/06 08:19:00;;;;;;;;;;;;;;;37.69;20.55;99658.25;5088537;28;19924;-52
2021/06/06 08:21:37;;;;;;;;;;;;;;;37.75;19.80;99663.03;5090082;28;19912;-48
2021/06/06 08:24:03;;;;;;;;;;;;;;;37.15;20.17;99646.81;5109501;28;19912;-50
2021/06/06 08:26:28;;;;;;;;;;;;;;;36.56;21.26;99664.13;5109470;28;19960;-50
2021/06/06 08:28:54;;;;;;;;;;;;;;;35.70;21.85;99663.13;5109279;28;19995;-50
2021/06/06 08:31:20;;;;;;;;;;;;;;;35.30;22.32;99655.41;5109291;28;19934;-51
2021/06/06 08:33:45;;;;;;;;;;;;;;;35.34;22.48;99648.78;5109203;28;19915;-49
2021/06/06 08:36:15;;;;;;;;;;;;;;;36.26;21.71;99644.81;5109375;28;19912;-51
2021/06/06 08:38:40;;;;;;;;;;;;;;;36.72;21.96;99646.47;5108963;28;20596;-52
2021/06/06 08:41:14;;;;;;;;;;;;;;;36.72;22.63;99644.47;5091015;28;20060;-51
2021/06/06 08:43:45;;;;;;;;;;;;;;;37.37;21.26;99645.75;5087086;28;19920;-49
2021/06/06 08:46:11;;;;;;;;;;;;;;;36.96;20.98;99634.78;5087574;28;20391;-52
2021/06/06 08:48:36;;;;;;;;;;;;;;;37.81;20.63;99640.44;5083436;28;19912;-50
2021/06/06 08:51:05;;;;;;;;;;;;;;;37.17;21.29;99627.81;5084305;28;19919;-49
2021/06/06 08:53:31;;;;;;;;;;;;;;;37.93;20.15;99629.78;5088831;28;19916;-50
2021/06/06 08:55:57;;;;;;;;;;;;;;;38.28;20.08;99627.50;5089422;28;19936;-50
2021/06/06 08:58:48;;;;;;;;;;;;;;;36.94;20.87;99626.06;5089403;28;19961;-51
2021/06/06 09:01:14;;;;;;;;;;;;;;;36.65;21.61;99625.00;5087606;28;19916;-50
2021/06/06 09:03:39;;;;;;;;;;;;;;;37.04;20.83;99613.44;5089831;28;19939;-52
2021/06/06 09:06:08;;;;;;;;;;;;;;;37.58;19.83;99619.31;5090456;28;19912;-52
2021/06/06 09:08:33;;;;;;;;;;;;;;;38.12;18.81;99622.34;5094178;28;19951;-52
2021/06/06 09:11:00;;;;;;;;;;;;;;;38.19;19.10;99622.31;5093924;28;20296;-51
2021/06/06 09:13:27;;;;;;;;;;;;;;;38.29;19.74;99621.56;5094017;28;20362;-52
2021/06/06 09:15:53;;;;;;;;;;;;;;;38.67;18.75;99612.88;5093371;28;20000;-48
2021/06/06 09:18:22;;;;;;;;;;;;;;;38.89;18.53;99620.00;5092269;28;20530;-51
2021/06/06 09:20:47;;;;;;;;;;;;;;;38.08;19.75;99619.56;5093652;28;19963;-48
2021/06/06 09:23:15;;;;;;;;;;;;;;;38.46;19.54;99621.97;5093463;28;20368;-51
2021/06/06 09:25:41;;;;;;;;;;;;;;;38.55;18.97;99616.84;5093048;28;19934;-52
2021/06/06 09:28:09;;;;;;;;;;;;;;;37.53;19.91;99617.72;5093292;28;19920;-51
2021/06/06 09:30:35;;;;;;;;;;;;;;;37.55;19.14;99609.78;5093521;28;19912;-50
2021/06/06 09:33:04;;;;;;;;;;;;;;;36.66;20.48;99604.44;5093161;28;20011;-49
2021/06/06 09:35:31;;;;;;;;;;;;;;;37.12;19.75;99605.97;5093101;28;19912;-48
2021/06/06 09:38:02;;;;;;;;;;;;;;;36.96;20.50;99601.50;5092902;28;20052;-50
2021/06/06 09:40:37;;;;;;;;;;;;;;;37.13;20.04;99596.47;5093392;28;19919;-51
2021/06/06 09:43:03;;;;;;;;;;;;;;;36.44;20.60;99592.34;5093532;28;19984;-48
2021/06/06 09:45:36;;;;;;;;;;;;;;;36.18;22.01;99585.00;5092138;28;19965;-50
2021/06/06 09:48:16;;;;;;;;;;;;;;;36.15;20.42;99574.66;5093274;28;19912;-51
2021/06/06 09:50:42;;;;;;;;;;;;;;;36.22;20.30;99571.19;5093178;28;19981;-49
2021/06/06 09:53:11;;;;;;;;;;;;;;;36.20;21.54;99566.81;5092851;28;19916;-47
2021/06/06 09:55:37;;;;;;;;;;;;;;;36.97;21.14;99575.34;5092729;28;19935;-50
2021/06/06 09:58:07;;;;;;;;;;;;;;;37.84;20.04;99571.06;5092780;28;19985;-51
2021/06/06 10:00:36;;;;;;;;;;;;;;;37.79;20.29;99570.63;5092786;28;19912;-50
2021/06/06 10:03:06;;;;;;;;;;;;;;;37.47;19.53;99572.09;5090965;28;20395;-50
2021/06/06 10:05:31;;;;;;;;;;;;;;;35.84;20.93;99557.34;5092663;28;20007;-51
2021/06/06 10:07:59;;;;;;;;;;;;;;;35.89;21.35;99556.19;5092421;28;19991;-49
2021/06/06 10:10:30;;;;;;;;;;;;;;;34.37;22.71;99558.00;5086517;28;19916;-50
2021/06/06 10:12:55;;;;;;;;;;;;;;;36.04;21.40;99557.13;5080174;28;20007;-50
2021/06/06 10:15:59;;;;;;;;;;;;;;;36.53;21.17;99548.50;5081611;28;20002;-51
2021/06/06 10:18:35;;;;;;;;;;;;;;;37.35;20.17;99553.78;5049091;28;19947;-51
2021/06/06 10:21:14;;;;;;;;;;;;;;;37.71;19.76;99542.06;5051187;28;19980;-51
2021/06/06 10:23:43;;;;;;;;;;;;;;;37.94;19.48;99550.06;5074341;28;19923;-51
2021/06/06 10:26:09;;;;;;;;;;;;;;;38.39;19.46;99541.41;5091662;28;19992;-51
2021/06/06 10:28:35;;;;;;;;;;;;;;;38.51;18.86;99543.78;5091887;28;19981;-49
2021/06/06 10:31:13;;;;;;;;;;;;;;;37.15;20.15;99538.66;5091746;28;20346;-51
2021/06/06 10:33:38;;;;;;;;;;;;;;;37.64;19.21;99530.94;5091532;28;20365;-50
2021/06/06 10:36:03;;;;;;;;;;;;;;;38.42;18.64;99529.47;5091703;28;20031;-51
2021/06/06 10:38:37;;;;;;;;;;;;;;;38.65;18.76;99534.66;5091771;28;20050;-51
2021/06/06 10:41:17;;;;;;;;;;;;;;;38.11;18.61;99526.31;5091684;28;19923;-51
2021/06/06 10:43:51;;;;;;;;;;;;;;;38.64;18.64;99525.53;5089509;28;19913;-52
2021/06/06 10:46:22;;;;;;;;;;;;;;;38.38;17.77;99510.03;5090264;28;19972;-50
2021/06/06 10:48:51;;;;;;;;;;;;;;;38.69;18.16;99521.53;5091497;28;19912;-50
2021/06/06 10:51:17;;;;;;;;;;;;;;;38.53;17.80;99503.28;5088970;28;20015;-52
2021/06/06 10:53:53;;;;;;;;;;;;;;;37.71;18.93;99501.22;5089538;28;19916;-52
2021/06/06 10:56:31;;;;;;;;;;;;;;;36.91;19.73;99499.28;5087468;28;19945;-51
2021/06/06 10:59:06;;;;;;;;;;;;;;;36.98;19.25;99484.69;5089378;28;19966;-50
2021/06/06 11:01:46;;;;;;;;;;;;;;;37.75;18.66;99490.13;5090005;28;19951;-39
2021/06/06 11:04:23;;;;;;;;;;;;;;;37.16;19.35;99482.78;5091790;28;20269;-52
2021/06/06 11:06:48;;;;;;;;;;;;;;;36.76;19.80;99489.31;5089817;28;19912;-48
2021/06/06 11:09:24;;;;;;;;;;;;;;;37.09;19.27;99474.44;5091268;28;19999;-51
2021/06/06 11:11:59;;;;;;;;;;;;;;;38.14;18.83;99475.53;5091221;28;19916;-49
2021/06/06 11:14:35;;;;;;;;;;;;;;;37.46;19.31;99473.38;5091238;28;19931;-50
2021/06/06 11:17:26;;;;;;;;;;;;;;;37.88;19.06;99469.13;5091320;28;19954;-51
2021/06/06 11:19:52;;;;;;;;;;;;;;;38.36;18.71;99464.41;5089333;28;19912;-51
2021/06/06 11:22:31;;;;;;;;;;;;;;;39.03;17.50;99466.28;5097785;28;20291;-49
2021/06/06 11:24:56;;;;;;;;;;;;;;;39.78;16.76;99464.28;5111427;28;20390;-48
2021/06/06 11:27:26;;;;;;;;;;;;;;;38.43;18.28;99456.84;5110172;28;20026;-51
2021/06/06 11:29:57;;;;;;;;;;;;;;;37.91;18.23;99451.69;5110601;28;19947;-52
2021/06/06 11:32:41;;;;;;;;;;;;;;;38.58;17.97;99454.06;5111494;28;19916;-41
2021/06/06 11:35:09;;;;;;;;;;;;;;;37.56;18.76;99444.88;5111675;28;19993;-39
2021/06/06 11:37:39;;;;;;;;;;;;;;;38.15;18.56;99441.00;5111458;28;19924;-39
2021/06/06 11:40:23;;;;;;;;;;;;;;;38.29;19.09;99443.78;5109967;28;20399;-39
2021/06/06 11:42:49;;;;;;;;;;;;;;;38.12;18.55;99452.91;5093525;28;19951;-39
2021/06/06 11:45:18;;;;;;;;;;;;;;;38.28;18.20;99436.63;5090030;28;19912;-40
2021/06/06 11:47:44;;;;;;;;;;;;;;;37.51;19.14;99413.97;5088813;28;19912;-49
2021/06/06 11:50:10;;;;;;;;;;;;;;;38.24;18.81;99421.94;5090325;28;19938;-49
2021/06/06 11:52:38;;;;;;;;;;;;;;;38.00;18.97;99417.16;5090366;28;19916;-52
2021/06/06 11:55:23;;;;;;;;;;;;;;;38.05;19.04;99412.00;5083134;28;19927;-50
2021/06/06 11:57:51;;;;;;;;;;;;;;;38.13;19.19;99412.81;5074291;28;19923;-52
2021/06/06 12:00:25;;;;;;;;;;;;;;;38.53;18.42;99402.44;5069785;28;19916;-51
2021/06/06 12:02:51;;;;;;;;;;;;;;;38.37;18.44;99411.22;5088888;28;19912;-52
2021/06/06 12:05:16;;;;;;;;;;;;;;;38.18;18.68;99408.88;5082082;28;20022;-47
2021/06/06 12:07:44;;;;;;;;;;;;;;;36.84;19.67;99407.75;5076616;28;19994;-50
2021/06/06 12:10:18;;;;;;;;;;;;;;;37.78;18.49;99405.28;5086004;28;20389;-51
2021/06/06 12:12:46;;;;;;;;;;;;;;;38.27;18.54;99398.94;5089540;28;19924;-51
2021/06/06 12:15:30;;;;;;;;;;;;;;;36.75;19.66;99396.28;5088168;28;20011;-51
2021/06/06 12:18:07;;;;;;;;;;;;;;;36.63;19.44;99402.88;5088123;28;20091;-49
2021/06/06 12:20:33;;;;;;;;;;;;;;;37.09;19.46;99395.97;5089176;28;19923;-51
2021/06/06 12:23:08;;;;;;;;;;;;;;;37.91;18.74;99393.38;5102211;28;19911;-51
2021/06/06 12:25:35;;;;;;;;;;;;;;;38.26;18.19;99396.53;5108824;28;20470;-52
2021/06/06 12:28:03;;;;;;;;;;;;;;;38.17;17.93;99385.84;5109043;28;19976;-51
2021/06/06 12:30:44;;;;;;;;;;;;;;;39.10;17.56;99384.78;5108915;28;19964;-52
2021/06/06 12:33:17;;;;;;;;;;;;;;;39.85;16.94;99383.47;5108939;28;19964;-52
2021/06/06 12:35:49;;;;;;;;;;;;;;;39.42;16.89;99370.66;5109100;28;20402;-52
2021/06/06 12:38:16;;;;;;;;;;;;;;;38.72;17.15;99376.97;5108084;28;19915;-51
2021/06/06 12:40:41;;;;;;;;;;;;;;;38.92;17.70;99366.16;5109085;27;20380;-51
2021/06/06 12:43:07;;;;;;;;;;;;;;;37.44;18.37;99348.16;5108070;28;19912;-51
2021/06/06 12:45:33;;;;;;;;;;;;;;;37.18;18.68;99357.59;5090750;28;19919;-50
2021/06/06 12:48:21;;;;;;;;;;;;;;;37.75;18.46;99360.47;5098698;28;19919;-53
2021/06/06 12:50:47;;;;;;;;;;;;;;;37.69;18.00;99355.72;5077751;28;19999;-50